Time;durP1;ratioP1;P1;durP2;ratioP2;P2;SDS_P1;SDS_P2;PMS_P1;PMS_P2;Temp;Humidity;BMP_temperature;BMP_pressure;BME280_temperature;BME280_humidity;BME280_pressure;Samples;Min_cycle;Max_cycle;Signal;HPM_P1;HPM_P2
2021/11/24 00:02:13;;;;;;;16.23;14.40;;;;;;;;;;4983073;28;24494;-65
2021/11/24 00:04:38;;;;;;;17.10;15.30;;;;;;;;;;4984520;28;24971;-65
2021/11/24 00:07:03;;;;;;;17.40;15.60;;;;;;;;;;4982072;28;24528;-64
2021/11/24 00:09:28;;;;;;;18.50;16.50;;;;;;;;;;4981209;28;24421;-63
2021/11/24 00:11:54;;;;;;;18.83;16.83;;;;;;;;;;4983099;28;24634;-62
2021/11/24 00:14:19;;;;;;;17.93;16.03;;;;;;;;;;4986334;28;24445;-62
2021/11/24 00:16:44;;;;;;;19.00;16.40;;;;;;;;;;4982175;28;24839;-62
2021/11/24 00:19:09;;;;;;;20.50;17.17;;;;;;;;;;4979631;28;24453;-61
2021/11/24 00:21:34;;;;;;;18.13;15.67;;;;;;;;;;4981102;28;24448;-62
2021/11/24 00:23:59;;;;;;;19.55;17.33;;;;;;;;;;4986665;28;25025;-64
2021/11/24 00:26:25;;;;;;;18.80;16.80;;;;;;;;;;4983783;28;24464;-64
2021/11/24 00:28:50;;;;;;;19.15;17.00;;;;;;;;;;4981821;28;24444;-61
2021/11/24 00:31:15;;;;;;;18.83;16.77;;;;;;;;;;4980380;28;24421;-62
2021/11/24 00:33:40;;;;;;;19.35;17.15;;;;;;;;;;4981932;28;24436;-62
2021/11/24 00:36:05;;;;;;;18.50;16.55;;;;;;;;;;4983626;28;24835;-63
2021/11/24 00:38:31;;;;;;;18.53;16.27;;;;;;;;;;4984070;28;24525;-63
2021/11/24 00:40:56;;;;;;;19.17;16.80;;;;;;;;;;4983116;28;26676;-63
2021/11/24 00:43:21;;;;;;;19.67;17.30;;;;;;;;;;4981907;28;24527;-63
2021/11/24 00:45:47;;;;;;;20.03;17.50;;;;;;;;;;4985228;28;24811;-62
2021/11/24 00:48:12;;;;;;;18.43;16.53;;;;;;;;;;4983743;28;24440;-62
2021/11/24 00:50:37;;;;;;;17.77;15.53;;;;;;;;;;4982067;28;24516;-62
2021/11/24 00:53:02;;;;;;;17.60;15.70;;;;;;;;;;4981504;28;24424;-62
2021/11/24 00:55:28;;;;;;;15.00;13.50;;;;;;;;;;4979424;28;24441;-62
2021/11/24 00:57:53;;;;;;;14.30;12.77;;;;;;;;;;4983701;28;24596;-62
2021/11/24 01:00:18;;;;;;;17.27;14.75;;;;;;;;;;4983053;28;24429;-62
2021/11/24 01:02:44;;;;;;;16.90;15.10;;;;;;;;;;4981857;28;24438;-62
2021/11/24 01:05:10;;;;;;;15.00;13.40;;;;;;;;;;4975924;28;24615;-62
2021/11/24 01:07:35;;;;;;;14.52;12.90;;;;;;;;;;4984748;28;25107;-62
2021/11/24 01:10:00;;;;;;;16.27;14.00;;;;;;;;;;4984055;28;24479;-62
2021/11/24 01:12:26;;;;;;;17.38;15.30;;;;;;;;;;4982844;28;24507;-61
2021/11/24 01:14:51;;;;;;;15.45;13.80;;;;;;;;;;4979608;28;24480;-64
2021/11/24 01:17:17;;;;;;;14.93;13.43;;;;;;;;;;4982669;28;24425;-64
2021/11/24 01:19:42;;;;;;;15.50;13.75;;;;;;;;;;4979836;28;24808;-62
2021/11/24 01:22:07;;;;;;;14.73;13.20;;;;;;;;;;4983301;28;24444;-62
2021/11/24 01:24:32;;;;;;;15.07;13.40;;;;;;;;;;4981593;28;24948;-62
2021/11/24 01:26:57;;;;;;;14.37;12.50;;;;;;;;;;4979727;28;24445;-62
2021/11/24 01:29:22;;;;;;;12.87;11.30;;;;;;;;;;4979224;28;24416;-62
2021/11/24 01:31:48;;;;;;;13.33;11.90;;;;;;;;;;4984000;28;24413;-62
2021/11/24 01:34:13;;;;;;;13.47;12.07;;;;;;;;;;4984438;28;24424;-62
2021/11/24 01:36:38;;;;;;;14.20;12.75;;;;;;;;;;4981904;28;24997;-61
2021/11/24 01:39:03;;;;;;;15.10;13.50;;;;;;;;;;4980774;28;24487;-62
2021/11/24 01:41:29;;;;;;;14.17;12.70;;;;;;;;;;4979021;28;25059;-62
2021/11/24 01:43:54;;;;;;;15.63;13.73;;;;;;;;;;4982121;28;24425;-62
2021/11/24 01:46:23;;;;;;;14.40;12.90;;;;;;;;;;4984306;28;24831;-64
2021/11/24 01:48:48;;;;;;;14.40;12.90;;;;;;;;;;4979374;28;25170;-64
2021/11/24 01:51:13;;;;;;;15.73;13.60;;;;;;;;;;4978770;28;24819;-64
2021/11/24 01:53:39;;;;;;;14.57;13.07;;;;;;;;;;4982515;28;24439;-63
2021/11/24 01:56:04;;;;;;;14.90;13.40;;;;;;;;;;4983722;28;24536;-63
2021/11/24 01:58:29;;;;;;;16.07;13.50;;;;;;;;;;4984116;28;24424;-63
2021/11/24 02:00:54;;;;;;;15.23;13.43;;;;;;;;;;4980294;28;24519;-63
2021/11/24 02:03:20;;;;;;;14.52;12.75;;;;;;;;;;4978685;28;24448;-64
2021/11/24 02:05:45;;;;;;;13.95;12.30;;;;;;;;;;4978259;28;24409;-63
2021/11/24 02:08:10;;;;;;;13.90;12.50;;;;;;;;;;4982084;28;24499;-64
2021/11/24 02:10:36;;;;;;;14.93;12.57;;;;;;;;;;4981327;28;24702;-63
2021/11/24 02:13:01;;;;;;;14.27;12.77;;;;;;;;;;4981552;28;24424;-64
2021/11/24 02:15:26;;;;;;;14.18;12.68;;;;;;;;;;4979397;28;24413;-63
2021/11/24 02:17:51;;;;;;;13.43;12.00;;;;;;;;;;4978731;28;24433;-63
2021/11/24 02:20:17;;;;;;;16.55;14.30;;;;;;;;;;4983200;28;24776;-63
2021/11/24 02:22:43;;;;;;;14.50;13.00;;;;;;;;;;4981613;28;25102;-64
2021/11/24 02:25:08;;;;;;;13.67;12.10;;;;;;;;;;4983622;28;24445;-64
2021/11/24 02:27:33;;;;;;;14.83;13.20;;;;;;;;;;4978894;28;24588;-64
2021/11/24 02:29:59;;;;;;;14.27;12.77;;;;;;;;;;4978820;28;24544;-64
2021/11/24 02:32:24;;;;;;;13.70;12.13;;;;;;;;;;4979445;28;24409;-64
2021/11/24 02:34:49;;;;;;;15.93;12.80;;;;;;;;;;4984869;28;24413;-64
2021/11/24 02:37:14;;;;;;;14.52;12.82;;;;;;;;;;4979296;28;25094;-63
2021/11/24 02:39:39;;;;;;;15.23;13.63;;;;;;;;;;4980355;28;24410;-64
2021/11/24 02:42:05;;;;;;;14.90;13.30;;;;;;;;;;4983110;28;24417;-64
2021/11/24 02:44:39;;;;;;;14.93;13.33;;;;;;;;;;4980075;28;24462;-65
2021/11/24 02:47:07;;;;;;;14.90;13.30;;;;;;;;;;4974448;28;24441;-65
2021/11/24 02:49:35;;;;;;;14.18;11.77;;;;;;;;;;4979843;28;24471;-64
2021/11/24 02:52:01;;;;;;;14.98;13.30;;;;;;;;;;4979470;28;24583;-64
2021/11/24 02:54:26;;;;;;;14.87;13.17;;;;;;;;;;4982995;28;24936;-62
2021/11/24 02:56:51;;;;;;;15.30;13.10;;;;;;;;;;4981836;28;24421;-65
2021/11/24 02:59:16;;;;;;;15.13;13.20;;;;;;;;;;4979335;28;25621;-65
2021/11/24 03:01:41;;;;;;;15.70;13.73;;;;;;;;;;4980308;28;24409;-65
2021/11/24 03:04:07;;;;;;;13.60;12.20;;;;;;;;;;4978892;28;24428;-64
2021/11/24 03:06:32;;;;;;;15.30;13.60;;;;;;;;;;4972810;28;24497;-64
2021/11/24 03:08:57;;;;;;;14.00;12.20;;;;;;;;;;4983276;28;24405;-64
2021/11/24 03:11:23;;;;;;;14.40;12.45;;;;;;;;;;4981010;28;24421;-64
2021/11/24 03:13:48;;;;;;;14.73;12.97;;;;;;;;;;4977985;28;24440;-62
2021/11/24 03:16:13;;;;;;;13.40;11.53;;;;;;;;;;4977881;28;24549;-62
2021/11/24 03:18:38;;;;;;;13.53;11.80;;;;;;;;;;4980147;28;24440;-62
2021/11/24 03:21:03;;;;;;;13.53;11.73;;;;;;;;;;4983736;28;25008;-63
2021/11/24 03:23:28;;;;;;;13.63;11.43;;;;;;;;;;4981496;28;24431;-63
2021/11/24 03:25:54;;;;;;;12.37;11.07;;;;;;;;;;4978253;28;24436;-63
2021/11/24 03:28:19;;;;;;;12.90;11.00;;;;;;;;;;4978506;28;25223;-65
2021/11/24 03:30:44;;;;;;;12.10;10.63;;;;;;;;;;4984029;28;25205;-62
2021/11/24 03:33:10;;;;;;;13.30;11.07;;;;;;;;;;4983008;28;24417;-62
2021/11/24 03:35:35;;;;;;;13.30;11.83;;;;;;;;;;4979121;28;24829;-63
2021/11/24 03:38:00;;;;;;;14.13;12.40;;;;;;;;;;4976651;28;24935;-62
2021/11/24 03:40:28;;;;;;;13.13;11.47;;;;;;;;;;4979859;28;24416;-62
2021/11/24 03:42:53;;;;;;;12.98;11.30;;;;;;;;;;4980116;28;24483;-62
2021/11/24 03:45:20;;;;;;;13.60;11.48;;;;;;;;;;4983180;28;24429;-62
2021/11/24 03:47:46;;;;;;;13.60;11.90;;;;;;;;;;4976597;28;24652;-63
2021/11/24 03:50:11;;;;;;;13.87;12.10;;;;;;;;;;4976882;28;24805;-62
2021/11/24 03:52:37;;;;;;;13.38;11.90;;;;;;;;;;4980305;28;24946;-62
2021/11/24 03:55:03;;;;;;;13.83;11.73;;;;;;;;;;4986562;28;24893;-63
2021/11/24 03:57:28;;;;;;;13.05;10.90;;;;;;;;;;4981973;28;24503;-62
2021/11/24 03:59:53;;;;;;;14.82;12.70;;;;;;;;;;4977348;28;24424;-63
2021/11/24 04:02:18;;;;;;;13.15;11.27;;;;;;;;;;4978555;28;24431;-62
2021/11/24 04:04:45;;;;;;;14.35;12.15;;;;;;;;;;4981136;28;24437;-63
2021/11/24 04:07:11;;;;;;;14.73;12.10;;;;;;;;;;4981965;28;24451;-63
2021/11/24 04:09:36;;;;;;;13.53;11.73;;;;;;;;;;4971404;28;24476;-62
2021/11/24 04:12:01;;;;;;;13.07;11.67;;;;;;;;;;4979312;28;24421;-62
2021/11/24 04:14:26;;;;;;;13.20;11.80;;;;;;;;;;4982878;28;25202;-61
2021/11/24 04:16:51;;;;;;;13.07;11.68;;;;;;;;;;4980371;28;24515;-62
2021/11/24 04:19:17;;;;;;;13.10;11.63;;;;;;;;;;4977790;28;24487;-62
2021/11/24 04:21:42;;;;;;;12.40;10.60;;;;;;;;;;4980993;28;24509;-62
2021/11/24 04:24:07;;;;;;;13.02;11.60;;;;;;;;;;4986342;28;25065;-61
2021/11/24 04:26:32;;;;;;;13.73;12.07;;;;;;;;;;4983043;28;24997;-62
2021/11/24 04:28:57;;;;;;;12.70;11.30;;;;;;;;;;4983232;28;24487;-62
2021/11/24 04:31:23;;;;;;;13.33;11.33;;;;;;;;;;4979760;28;25006;-61
2021/11/24 04:33:48;;;;;;;16.50;13.23;;;;;;;;;;4984973;28;24417;-61
2021/11/24 04:36:13;;;;;;;13.07;11.57;;;;;;;;;;4983594;28;24444;-61
2021/11/24 04:38:38;;;;;;;13.30;11.87;;;;;;;;;;4969464;28;25003;-61
2021/11/24 04:41:03;;;;;;;13.32;11.80;;;;;;;;;;4984780;28;24977;-62
2021/11/24 04:43:32;;;;;;;13.27;11.63;;;;;;;;;;4984568;28;24463;-62
2021/11/24 04:45:59;;;;;;;13.50;11.60;;;;;;;;;;4983168;28;24490;-62
2021/11/24 04:48:24;;;;;;;14.02;12.20;;;;;;;;;;4978839;28;24437;-62
2021/11/24 04:50:50;;;;;;;13.27;11.03;;;;;;;;;;4984470;28;24423;-62
2021/11/24 04:53:15;;;;;;;14.43;11.60;;;;;;;;;;4993005;28;24664;-62
2021/11/24 04:55:41;;;;;;;12.97;11.50;;;;;;;;;;4983109;28;24428;-62
2021/11/24 04:58:06;;;;;;;14.70;11.90;;;;;;;;;;4983868;28;25129;-62
2021/11/24 05:00:31;;;;;;;12.70;10.87;;;;;;;;;;4992827;28;24417;-62
2021/11/24 05:02:56;;;;;;;13.70;11.90;;;;;;;;;;4988890;28;24544;-62
2021/11/24 05:05:24;;;;;;;13.97;10.90;;;;;;;;;;4996667;28;24451;-63
2021/11/24 05:07:49;;;;;;;14.18;12.10;;;;;;;;;;4979408;28;24792;-62
2021/11/24 05:10:14;;;;;;;13.57;11.77;;;;;;;;;;4980882;28;25009;-62
2021/11/24 05:12:40;;;;;;;12.70;11.07;;;;;;;;;;4978682;28;24409;-62
2021/11/24 05:15:06;;;;;;;12.73;11.20;;;;;;;;;;4984344;28;25111;-62
2021/11/24 05:17:32;;;;;;;13.30;11.90;;;;;;;;;;4982898;28;24455;-63
2021/11/24 05:19:57;;;;;;;12.83;11.50;;;;;;;;;;4984700;28;24979;-63
2021/11/24 05:22:22;;;;;;;13.80;12.30;;;;;;;;;;4983259;28;24947;-63
2021/11/24 05:24:48;;;;;;;13.88;12.20;;;;;;;;;;4976751;28;24436;-63
2021/11/24 05:27:14;;;;;;;16.93;13.53;;;;;;;;;;4979345;28;24944;-64
2021/11/24 05:29:40;;;;;;;17.23;14.10;;;;;;;;;;4984770;28;24468;-64
2021/11/24 05:32:06;;;;;;;16.58;14.65;;;;;;;;;;4984262;28;24440;-64
2021/11/24 05:34:31;;;;;;;19.23;16.45;;;;;;;;;;4980803;28;24994;-64
2021/11/24 05:36:56;;;;;;;17.20;14.80;;;;;;;;;;4982120;28;24970;-64
2021/11/24 05:39:21;;;;;;;16.77;13.88;;;;;;;;;;4976579;28;24425;-64
2021/11/24 05:41:46;;;;;;;17.80;15.00;;;;;;;;;;4984773;28;24425;-63
2021/11/24 05:44:34;;;;;;;16.37;13.80;;;;;;;;;;4984620;28;24429;-62
2021/11/24 05:47:05;;;;;;;16.45;13.85;;;;;;;;;;4981658;28;24433;-63
2021/11/24 05:49:30;;;;;;;15.40;13.20;;;;;;;;;;4980149;28;24540;-63
2021/11/24 05:51:57;;;;;;;17.27;14.47;;;;;;;;;;4980253;28;24774;-63
2021/11/24 05:54:22;;;;;;;16.13;13.70;;;;;;;;;;4983422;28;24437;-64
2021/11/24 05:56:47;;;;;;;14.23;12.70;;;;;;;;;;4982210;28;24428;-64
2021/11/24 05:59:13;;;;;;;15.63;13.20;;;;;;;;;;4980981;28;24487;-64
2021/11/24 06:01:38;;;;;;;15.52;12.93;;;;;;;;;;4977691;28;25049;-64
2021/11/24 06:04:04;;;;;;;14.30;12.20;;;;;;;;;;4984859;28;24437;-65
2021/11/24 06:06:30;;;;;;;15.00;12.48;;;;;;;;;;4984380;28;25001;-64
2021/11/24 06:08:55;;;;;;;16.27;13.43;;;;;;;;;;4981107;28;25030;-64
2021/11/24 06:11:20;;;;;;;15.90;12.50;;;;;;;;;;4981016;28;24500;-65
2021/11/24 06:13:46;;;;;;;14.90;12.20;;;;;;;;;;4981448;28;24511;-66
2021/11/24 06:16:11;;;;;;;13.60;12.20;;;;;;;;;;4988914;28;24444;-65
2021/11/24 06:18:36;;;;;;;13.97;12.20;;;;;;;;;;4980256;28;24476;-65
2021/11/24 06:21:01;;;;;;;13.50;11.77;;;;;;;;;;4984176;28;25022;-65
2021/11/24 06:23:27;;;;;;;13.53;11.40;;;;;;;;;;4981639;28;25046;-65
2021/11/24 06:25:52;;;;;;;13.97;12.23;;;;;;;;;;4980509;28;24439;-64
2021/11/24 06:28:17;;;;;;;14.00;12.30;;;;;;;;;;4980243;28;24460;-65
2021/11/24 06:30:42;;;;;;;13.63;12.00;;;;;;;;;;4968451;28;24421;-65
2021/11/24 06:33:07;;;;;;;13.60;11.75;;;;;;;;;;4984556;28;24423;-65
2021/11/24 06:35:33;;;;;;;12.20;11.00;;;;;;;;;;4981807;28;24816;-65
2021/11/24 06:37:58;;;;;;;13.90;12.40;;;;;;;;;;4980874;28;25053;-65
2021/11/24 06:40:23;;;;;;;14.07;11.90;;;;;;;;;;4983335;28;24519;-65
2021/11/24 06:42:49;;;;;;;12.50;11.20;;;;;;;;;;4978822;28;24976;-65
2021/11/24 06:45:14;;;;;;;13.37;11.43;;;;;;;;;;4977647;28;24420;-65
2021/11/24 06:47:40;;;;;;;14.10;12.30;;;;;;;;;;4981112;28;24417;-64
2021/11/24 06:50:06;;;;;;;14.43;12.27;;;;;;;;;;4983980;28;24471;-65
2021/11/24 06:52:31;;;;;;;15.20;12.70;;;;;;;;;;4981744;28;24889;-64
2021/11/24 06:54:56;;;;;;;13.40;12.00;;;;;;;;;;4977696;28;24512;-65
2021/11/24 06:57:21;;;;;;;13.70;11.93;;;;;;;;;;4977037;28;24417;-65
2021/11/24 06:59:47;;;;;;;13.40;11.70;;;;;;;;;;4979055;28;24424;-64
2021/11/24 07:02:12;;;;;;;14.25;12.10;;;;;;;;;;4978948;28;24931;-64
2021/11/24 07:04:37;;;;;;;13.38;11.55;;;;;;;;;;4977534;28;24421;-66
2021/11/24 07:07:03;;;;;;;13.55;11.95;;;;;;;;;;4988033;28;24531;-64
2021/11/24 07:09:28;;;;;;;12.43;11.13;;;;;;;;;;4997137;28;24567;-64
2021/11/24 07:11:53;;;;;;;13.73;12.20;;;;;;;;;;4980420;28;24401;-63
2021/11/24 07:14:18;;;;;;;13.90;12.33;;;;;;;;;;4980385;28;24521;-65
2021/11/24 07:16:43;;;;;;;13.50;11.40;;;;;;;;;;4976026;28;24413;-65
2021/11/24 07:19:08;;;;;;;13.65;12.10;;;;;;;;;;4977203;28;24512;-64
2021/11/24 07:21:34;;;;;;;12.23;10.90;;;;;;;;;;4973840;28;24440;-67
2021/11/24 07:23:59;;;;;;;13.35;11.95;;;;;;;;;;4980652;28;24999;-67
2021/11/24 07:26:25;;;;;;;12.67;11.27;;;;;;;;;;4980851;28;24541;-67
2021/11/24 07:28:50;;;;;;;13.80;11.80;;;;;;;;;;4978470;28;24487;-67
2021/11/24 07:31:15;;;;;;;13.30;11.50;;;;;;;;;;4978926;28;24408;-66
2021/11/24 07:33:40;;;;;;;13.77;11.10;;;;;;;;;;4974264;28;24606;-68
2021/11/24 07:36:06;;;;;;;15.75;12.20;;;;;;;;;;4975390;28;25119;-67
2021/11/24 07:38:31;;;;;;;13.13;11.43;;;;;;;;;;4979549;28;24520;-67
2021/11/24 07:40:56;;;;;;;13.07;11.60;;;;;;;;;;4979684;28;24472;-67
2021/11/24 07:43:22;;;;;;;15.00;12.23;;;;;;;;;;4980602;28;25190;-67
2021/11/24 07:45:47;;;;;;;13.90;11.52;;;;;;;;;;4976793;28;25018;-66
2021/11/24 07:48:12;;;;;;;15.10;11.93;;;;;;;;;;4974559;28;25400;-66
2021/11/24 07:50:38;;;;;;;13.93;12.47;;;;;;;;;;4976952;28;24609;-66
2021/11/24 07:53:03;;;;;;;15.13;12.90;;;;;;;;;;4980710;28;24841;-63
2021/11/24 07:55:28;;;;;;;15.80;13.20;;;;;;;;;;4993179;28;24432;-63
2021/11/24 07:57:54;;;;;;;16.25;14.05;;;;;;;;;;4997810;28;24420;-64
2021/11/24 08:00:19;;;;;;;15.80;13.63;;;;;;;;;;4996364;28;24439;-64
2021/11/24 08:02:45;;;;;;;15.27;13.63;;;;;;;;;;4994511;28;24503;-64
2021/11/24 08:05:10;;;;;;;20.52;17.55;;;;;;;;;;4993163;28;24421;-64
2021/11/24 08:07:36;;;;;;;19.10;16.63;;;;;;;;;;4983744;28;24424;-64
2021/11/24 08:10:05;;;;;;;16.67;14.70;;;;;;;;;;4987608;28;24465;-64
2021/11/24 08:12:31;;;;;;;16.98;14.90;;;;;;;;;;4979355;28;24491;-64
2021/11/24 08:14:56;;;;;;;16.92;14.00;;;;;;;;;;4981794;28;24801;-64
2021/11/24 08:17:21;;;;;;;16.10;13.77;;;;;;;;;;4985711;28;24429;-64
2021/11/24 08:19:47;;;;;;;16.98;14.20;;;;;;;;;;4986390;28;24500;-63
2021/11/24 08:22:12;;;;;;;18.53;15.17;;;;;;;;;;4985172;28;25167;-63
2021/11/24 08:24:37;;;;;;;16.17;14.27;;;;;;;;;;4981547;28;24456;-64
2021/11/24 08:27:02;;;;;;;16.80;14.90;;;;;;;;;;4985556;28;24425;-63
2021/11/24 08:29:28;;;;;;;17.73;14.80;;;;;;;;;;4988324;28;24421;-64
2021/11/24 08:31:53;;;;;;;17.73;14.97;;;;;;;;;;4995003;28;24409;-64
2021/11/24 08:34:20;;;;;;;16.13;14.10;;;;;;;;;;4982252;28;24409;-64
2021/11/24 08:36:45;;;;;;;16.02;14.13;;;;;;;;;;4982011;28;24812;-64
2021/11/24 08:39:10;;;;;;;17.33;14.80;;;;;;;;;;4979543;28;24432;-63
2021/11/24 08:41:35;;;;;;;16.02;14.13;;;;;;;;;;4985625;28;24468;-60
2021/11/24 08:44:00;;;;;;;17.33;14.17;;;;;;;;;;4990150;28;24436;-60
2021/11/24 08:46:26;;;;;;;19.87;16.90;;;;;;;;;;5000744;28;24507;-59
2021/11/24 08:48:51;;;;;;;20.48;17.65;;;;;;;;;;5000781;28;24421;-60
2021/11/24 08:51:17;;;;;;;17.53;14.83;;;;;;;;;;4985980;28;24421;-60
2021/11/24 08:53:42;;;;;;;16.87;14.87;;;;;;;;;;4984138;28;24947;-59
2021/11/24 08:56:07;;;;;;;17.50;15.10;;;;;;;;;;4995053;28;24455;-60
2021/11/24 08:58:32;;;;;;;20.10;17.77;;;;;;;;;;4985460;28;24407;-59
2021/11/24 09:00:57;;;;;;;17.03;14.90;;;;;;;;;;4981541;28;25077;-60
2021/11/24 09:03:23;;;;;;;17.83;15.27;;;;;;;;;;4985558;28;25257;-63
2021/11/24 09:05:48;;;;;;;15.53;13.50;;;;;;;;;;4987339;28;24414;-63
2021/11/24 09:08:13;;;;;;;14.30;12.80;;;;;;;;;;4986074;28;25223;-63
2021/11/24 09:10:40;;;;;;;14.68;13.07;;;;;;;;;;4985068;28;24427;-63
2021/11/24 09:13:05;;;;;;;14.18;12.68;;;;;;;;;;4985372;28;24533;-63
2021/11/24 09:15:30;;;;;;;14.60;12.87;;;;;;;;;;4985723;28;24508;-64
2021/11/24 09:17:55;;;;;;;14.37;12.80;;;;;;;;;;4988114;28;25106;-63
2021/11/24 09:20:20;;;;;;;15.73;12.90;;;;;;;;;;5000353;28;24440;-63
2021/11/24 09:22:47;;;;;;;13.50;12.10;;;;;;;;;;4977168;28;24463;-63
2021/11/24 09:25:16;;;;;;;13.88;12.40;;;;;;;;;;4984064;28;24479;-63
2021/11/24 09:28:15;;;;;;;13.55;12.15;;;;;;;;;;4989228;28;24441;-63
2021/11/24 09:30:32;;;;;;;13.35;11.77;;;;;;;;;;4984559;28;24507;-64
2021/11/24 09:32:58;;;;;;;13.90;12.50;;;;;;;;;;4984296;28;24874;-63
2021/11/24 09:35:23;;;;;;;13.27;11.70;;;;;;;;;;4982254;28;24409;-64
2021/11/24 09:37:49;;;;;;;12.13;10.82;;;;;;;;;;4996191;28;25022;-63
2021/11/24 09:40:14;;;;;;;14.20;12.70;;;;;;;;;;4997465;28;24459;-64
2021/11/24 09:42:41;;;;;;;15.60;11.70;;;;;;;;;;4983157;28;24520;-63
2021/11/24 09:45:07;;;;;;;13.80;11.90;;;;;;;;;;4989391;28;24436;-65
2021/11/24 09:47:33;;;;;;;15.17;11.70;;;;;;;;;;4978607;28;24437;-64
2021/11/24 09:49:59;;;;;;;13.70;12.20;;;;;;;;;;4979461;28;24421;-64
2021/11/24 09:52:25;;;;;;;12.80;11.40;;;;;;;;;;4981019;28;24978;-64
2021/11/24 09:54:50;;;;;;;12.70;11.40;;;;;;;;;;4984825;28;24518;-64
2021/11/24 09:57:17;;;;;;;13.88;11.32;;;;;;;;;;4985406;28;24878;-64
2021/11/24 09:59:42;;;;;;;13.20;11.80;;;;;;;;;;4981735;28;25073;-63
2021/11/24 10:02:08;;;;;;;12.73;11.27;;;;;;;;;;4984788;28;24497;-64
2021/11/24 10:04:33;;;;;;;13.93;12.00;;;;;;;;;;4979489;28;24852;-64
2021/11/24 10:06:58;;;;;;;13.63;12.00;;;;;;;;;;4986213;28;24482;-64
2021/11/24 10:09:23;;;;;;;15.93;12.83;;;;;;;;;;4982166;28;24421;-64
2021/11/24 10:11:48;;;;;;;13.67;12.07;;;;;;;;;;4984250;28;24413;-63
2021/11/24 10:14:14;;;;;;;13.80;12.30;;;;;;;;;;4984330;28;24424;-64
2021/11/24 10:16:39;;;;;;;15.87;14.17;;;;;;;;;;4981535;28;24420;-64
2021/11/24 10:19:05;;;;;;;16.35;14.65;;;;;;;;;;4981640;28;24500;-63
2021/11/24 10:21:31;;;;;;;14.65;13.00;;;;;;;;;;4983140;28;24939;-64
2021/11/24 10:24:01;;;;;;;14.97;13.20;;;;;;;;;;4984561;28;24536;-64
2021/11/24 10:26:32;;;;;;;13.57;12.10;;;;;;;;;;4981227;28;24421;-64
2021/11/24 10:28:59;;;;;;;14.70;12.83;;;;;;;;;;4982493;28;24592;-64
2021/11/24 10:31:26;;;;;;;15.20;13.00;;;;;;;;;;4984484;28;24389;-64
2021/11/24 10:33:51;;;;;;;14.00;12.23;;;;;;;;;;4980815;28;24417;-64
2021/11/24 10:36:16;;;;;;;13.63;12.23;;;;;;;;;;4979340;28;24463;-63
2021/11/24 10:38:43;;;;;;;13.98;12.43;;;;;;;;;;4977550;28;24462;-62
2021/11/24 10:41:10;;;;;;;17.08;14.68;;;;;;;;;;4978715;28;24414;-63
2021/11/24 10:43:40;;;;;;;17.52;14.70;;;;;;;;;;4984875;28;24405;-62
2021/11/24 10:46:06;;;;;;;15.45;13.85;;;;;;;;;;4983738;28;24512;-63
2021/11/24 10:48:31;;;;;;;12.15;10.80;;;;;;;;;;4983453;28;25110;-63
2021/11/24 10:51:02;;;;;;;12.30;11.00;;;;;;;;;;4981983;28;24417;-63
2021/11/24 10:53:27;;;;;;;14.57;13.07;;;;;;;;;;4978936;28;25010;-62
2021/11/24 10:55:53;;;;;;;14.88;13.27;;;;;;;;;;4983966;28;24509;-63
2021/11/24 10:58:25;;;;;;;15.05;13.45;;;;;;;;;;4982078;28;24424;-63
2021/11/24 11:00:52;;;;;;;16.73;14.65;;;;;;;;;;4982369;28;24823;-63
2021/11/24 11:03:17;;;;;;;13.20;11.80;;;;;;;;;;4983312;28;24417;-63
2021/11/24 11:05:44;;;;;;;12.70;11.40;;;;;;;;;;4980809;28;24416;-63
2021/11/24 11:08:11;;;;;;;13.40;12.00;;;;;;;;;;4978062;28;24444;-63
2021/11/24 11:10:43;;;;;;;16.50;13.82;;;;;;;;;;4981395;28;24977;-63
2021/11/24 11:13:12;;;;;;;15.13;13.40;;;;;;;;;;4983091;28;24499;-62
2021/11/24 11:15:38;;;;;;;15.80;14.07;;;;;;;;;;4993353;28;24424;-65
2021/11/24 11:18:11;;;;;;;14.98;13.38;;;;;;;;;;4978471;28;24424;-65
2021/11/24 11:20:39;;;;;;;16.42;13.32;;;;;;;;;;4979630;28;24405;-65
2021/11/24 11:23:08;;;;;;;13.85;12.18;;;;;;;;;;4984000;28;24479;-64
2021/11/24 11:25:33;;;;;;;14.85;12.07;;;;;;;;;;4981991;28;24420;-64
2021/11/24 11:28:00;;;;;;;13.57;12.17;;;;;;;;;;4980946;28;24441;-65
2021/11/24 11:30:25;;;;;;;12.75;11.25;;;;;;;;;;4979634;28;24397;-65
2021/11/24 11:32:51;;;;;;;17.38;14.85;;;;;;;;;;4985128;28;24508;-62
2021/11/24 11:35:16;;;;;;;15.47;13.70;;;;;;;;;;4987395;28;24456;-62
2021/11/24 11:37:42;;;;;;;14.70;12.80;;;;;;;;;;4984377;28;24413;-63
2021/11/24 11:40:08;;;;;;;13.65;12.25;;;;;;;;;;4981744;28;24837;-63
2021/11/24 11:42:33;;;;;;;13.07;11.65;;;;;;;;;;4983629;28;24435;-65
2021/11/24 11:45:06;;;;;;;13.90;12.40;;;;;;;;;;4987784;28;24421;-64
2021/11/24 11:47:45;;;;;;;13.43;11.65;;;;;;;;;;4986171;28;24507;-64
2021/11/24 11:50:11;;;;;;;15.20;13.50;;;;;;;;;;4989016;28;24460;-64
2021/11/24 11:52:36;;;;;;;14.40;12.23;;;;;;;;;;4972190;28;24785;-64
2021/11/24 11:55:15;;;;;;;13.87;12.37;;;;;;;;;;4987143;28;24780;-64
2021/11/24 11:57:44;;;;;;;14.60;12.68;;;;;;;;;;4990277;28;24435;-64
2021/11/24 12:00:10;;;;;;;13.55;12.13;;;;;;;;;;4986391;28;24499;-64
2021/11/24 12:02:46;;;;;;;13.05;11.65;;;;;;;;;;4988092;28;24449;-64
2021/11/24 12:05:11;;;;;;;12.38;11.07;;;;;;;;;;4989302;28;24655;-64
2021/11/24 12:07:56;;;;;;;12.70;11.30;;;;;;;;;;4983022;28;24783;-65
2021/11/24 12:10:41;;;;;;;13.20;11.43;;;;;;;;;;4981299;28;24491;-63
2021/11/24 12:13:07;;;;;;;12.80;11.40;;;;;;;;;;4982607;28;24455;-65
2021/11/24 12:15:32;;;;;;;14.75;11.82;;;;;;;;;;4979978;28;25525;-65
2021/11/24 12:17:58;;;;;;;12.73;11.10;;;;;;;;;;4967999;28;24476;-65
2021/11/24 12:20:27;;;;;;;12.27;10.82;;;;;;;;;;4967882;28;24966;-63
2021/11/24 12:22:57;;;;;;;12.70;11.00;;;;;;;;;;4977635;28;24902;-64
2021/11/24 12:25:24;;;;;;;13.65;11.98;;;;;;;;;;4963250;28;24412;-64
2021/11/24 12:27:58;;;;;;;11.97;10.73;;;;;;;;;;4964451;28;24471;-64
2021/11/24 12:30:40;;;;;;;15.50;12.73;;;;;;;;;;4975231;28;24559;-65
2021/11/24 12:33:06;;;;;;;14.52;12.85;;;;;;;;;;4981669;28;24420;-63
2021/11/24 12:35:32;;;;;;;14.00;11.68;;;;;;;;;;4980088;28;24878;-63
2021/11/24 12:37:59;;;;;;;13.30;11.60;;;;;;;;;;4983933;28;24416;-63
2021/11/24 12:40:35;;;;;;;11.60;10.27;;;;;;;;;;4982022;28;25029;-63
2021/11/24 12:43:01;;;;;;;12.57;11.00;;;;;;;;;;4978962;28;24989;-62
2021/11/24 12:45:27;;;;;;;11.18;10.02;;;;;;;;;;4980389;28;24424;-62
2021/11/24 12:47:55;;;;;;;11.57;10.37;;;;;;;;;;4982021;28;24521;-62
2021/11/24 12:50:23;;;;;;;9.88;8.88;;;;;;;;;;4978891;28;24775;-63
2021/11/24 12:52:58;;;;;;;11.50;9.63;;;;;;;;;;4970812;28;24974;-63
2021/11/24 12:55:23;;;;;;;10.13;9.10;;;;;;;;;;4979277;28;24437;-64
2021/11/24 12:57:48;;;;;;;10.70;9.60;;;;;;;;;;4980585;28;24452;-63
2021/11/24 13:00:30;;;;;;;10.00;9.00;;;;;;;;;;4980620;28;24440;-64
2021/11/24 13:02:56;;;;;;;9.90;8.43;;;;;;;;;;4981631;28;24474;-64
2021/11/24 13:05:22;;;;;;;9.67;8.67;;;;;;;;;;4982856;28;24432;-64
2021/11/24 13:07:54;;;;;;;9.20;8.30;;;;;;;;;;4978916;28;24525;-64
2021/11/24 13:10:20;;;;;;;10.00;9.00;;;;;;;;;;4979259;28;24455;-63
2021/11/24 13:12:45;;;;;;;10.40;9.23;;;;;;;;;;4980221;28;24483;-63
2021/11/24 13:15:11;;;;;;;10.77;9.27;;;;;;;;;;4983219;28;24413;-65
2021/11/24 13:17:39;;;;;;;10.57;9.48;;;;;;;;;;4981304;28;24436;-63
2021/11/24 13:20:09;;;;;;;11.52;10.32;;;;;;;;;;4981039;28;24508;-63
2021/11/24 13:22:39;;;;;;;9.50;8.50;;;;;;;;;;4977292;28;24479;-62
2021/11/24 13:25:11;;;;;;;10.02;9.02;;;;;;;;;;4982168;28;25002;-63
2021/11/24 13:27:36;;;;;;;10.70;9.45;;;;;;;;;;4981115;28;24469;-64
2021/11/24 13:30:02;;;;;;;11.70;10.50;;;;;;;;;;4979454;28;24463;-64
2021/11/24 13:32:27;;;;;;;11.40;10.20;;;;;;;;;;4979196;28;24424;-64
2021/11/24 13:34:54;;;;;;;12.30;10.82;;;;;;;;;;4980824;28;24420;-64
2021/11/24 13:37:23;;;;;;;10.43;9.43;;;;;;;;;;4982448;28;24417;-65
2021/11/24 13:39:51;;;;;;;10.93;9.33;;;;;;;;;;4982622;28;25041;-63
2021/11/24 13:42:16;;;;;;;9.85;8.85;;;;;;;;;;4982769;28;24417;-64
2021/11/24 13:45:00;;;;;;;9.77;8.00;;;;;;;;;;4977128;28;24483;-63
2021/11/24 13:47:29;;;;;;;9.57;8.55;;;;;;;;;;4976491;28;24428;-64
2021/11/24 13:49:57;;;;;;;9.40;8.40;;;;;;;;;;4982373;28;25006;-63
2021/11/24 13:52:23;;;;;;;9.52;8.38;;;;;;;;;;4975281;28;24631;-63
2021/11/24 13:54:49;;;;;;;9.88;8.82;;;;;;;;;;4977295;28;24536;-63
2021/11/24 13:57:17;;;;;;;9.60;8.55;;;;;;;;;;4976122;28;24428;-64
2021/11/24 13:59:43;;;;;;;9.77;8.75;;;;;;;;;;4982684;28;24467;-64
2021/11/24 14:02:09;;;;;;;9.43;8.43;;;;;;;;;;4979489;28;25250;-63
2021/11/24 14:04:35;;;;;;;9.80;8.80;;;;;;;;;;4980198;28;24425;-63
2021/11/24 14:07:06;;;;;;;9.18;8.27;;;;;;;;;;4976119;28;24984;-62
2021/11/24 14:09:33;;;;;;;10.55;9.40;;;;;;;;;;4975320;28;24404;-63
2021/11/24 14:12:07;;;;;;;9.90;8.90;;;;;;;;;;4980416;28;24412;-63
2021/11/24 14:14:50;;;;;;;10.70;9.00;;;;;;;;;;4980104;28;24977;-63